createdAt,value
2019-04-12T00:01:07.660Z,5.20
2019-04-12T00:03:38.311Z,4.60
2019-04-12T00:06:09.080Z,4.27
2019-04-12T00:08:39.781Z,6.30
2019-04-12T00:11:10.416Z,13.13
2019-04-12T00:13:41.084Z,3.80
2019-04-12T00:16:14.329Z,5.90
2019-04-12T00:18:45.168Z,5.90
2019-04-12T00:21:16.875Z,6.37
2019-04-12T00:23:48.526Z,3.60
2019-04-12T00:26:19.201Z,3.80
2019-04-12T00:28:50.745Z,3.60
2019-04-12T00:31:22.963Z,6.97
2019-04-12T00:33:53.874Z,5.77
2019-04-12T00:36:24.756Z,3.60
2019-04-12T00:38:58.080Z,5.93
2019-04-12T00:41:31.886Z,9.73
2019-04-12T00:44:02.553Z,6.73
2019-04-12T00:46:35.001Z,4.63
2019-04-12T00:49:07.169Z,3.93
2019-04-12T00:51:42.286Z,6.73
2019-04-12T00:54:10.469Z,5.83
2019-04-12T00:56:41.155Z,6.97
2019-04-12T00:59:11.866Z,7.40
2019-04-12T01:01:56.768Z,5.10
2019-04-12T01:04:32.015Z,6.30
2019-04-12T01:07:02.964Z,8.27
2019-04-12T01:09:33.679Z,3.27
2019-04-12T01:12:04.405Z,4.80
2019-04-12T01:14:35.031Z,3.93
2019-04-12T01:17:05.769Z,4.60
2019-04-12T01:19:36.549Z,5.33
2019-04-12T01:22:09.044Z,5.60
2019-04-12T01:24:41.725Z,4.20
2019-04-12T01:27:12.125Z,6.57
2019-04-12T01:29:42.757Z,5.60
2019-04-12T01:32:13.371Z,3.77
2019-04-12T01:34:44.105Z,4.13
2019-04-12T01:37:14.720Z,6.10
2019-04-12T01:39:45.314Z,4.93
2019-04-12T01:42:15.904Z,4.60
2019-04-12T01:44:46.486Z,5.90
2019-04-12T01:47:16.982Z,6.37
2019-04-12T01:49:47.843Z,6.00
2019-04-12T01:52:18.472Z,4.40
2019-04-12T01:54:49.091Z,9.80
2019-04-12T01:57:19.886Z,7.57
2019-04-12T01:59:50.519Z,5.57
2019-04-12T02:02:21.179Z,6.67
2019-04-12T02:04:51.813Z,5.23
2019-04-12T02:07:22.460Z,6.20
2019-04-12T02:09:53.076Z,4.57
2019-04-12T02:12:23.761Z,4.97
2019-04-12T02:14:54.349Z,5.40
2019-04-12T02:17:24.943Z,4.17
2019-04-12T02:19:55.518Z,9.00
2019-04-12T02:22:26.228Z,6.33
2019-04-12T02:24:56.740Z,6.63
2019-04-12T02:27:27.315Z,6.03
2019-04-12T02:29:57.859Z,6.30
2019-04-12T02:32:38.550Z,7.43
2019-04-12T02:35:11.428Z,5.27
2019-04-12T02:37:42.028Z,7.77
2019-04-12T02:40:12.795Z,4.97
2019-04-12T02:42:45.008Z,5.43
2019-04-12T02:45:17.318Z,6.67
2019-04-12T02:47:50.428Z,5.33
2019-04-12T02:50:47.316Z,5.77
2019-04-12T02:53:39.074Z,5.30
2019-04-12T02:56:28.746Z,7.47
2019-04-12T02:59:04.251Z,5.80
2019-04-12T03:01:39.381Z,6.00
2019-04-12T03:04:09.672Z,7.50
2019-04-12T03:06:40.425Z,7.90
2019-04-12T03:09:12.824Z,8.13
2019-04-12T03:11:45.308Z,6.00
2019-04-12T03:14:16.479Z,6.57
2019-04-12T03:16:48.980Z,5.87
2019-04-12T03:19:19.762Z,7.70
2019-04-12T03:21:50.533Z,7.97
2019-04-12T03:24:21.389Z,7.80
2019-04-12T03:26:52.561Z,8.40
2019-04-12T03:29:23.914Z,7.60
2019-04-12T03:31:55.139Z,8.40
2019-04-12T03:34:26.503Z,6.43
2019-04-12T03:36:57.284Z,8.37
2019-04-12T03:39:31.002Z,6.53
2019-04-12T03:42:01.721Z,8.00
2019-04-12T03:44:32.378Z,5.60
2019-04-12T03:47:03.149Z,6.70
2019-04-12T03:49:33.771Z,6.50
2019-04-12T03:52:04.697Z,7.67
2019-04-12T03:54:35.572Z,11.00
2019-04-12T03:57:06.678Z,7.70
2019-04-12T03:59:37.542Z,5.90
2019-04-12T04:02:12.837Z,9.00
2019-04-12T04:04:43.777Z,7.40
2019-04-12T04:07:14.740Z,5.67
2019-04-12T04:09:45.831Z,8.60
2019-04-12T04:12:17.529Z,6.00
2019-04-12T04:14:49.149Z,7.97
2019-04-12T04:17:27.458Z,7.80
2019-04-12T04:20:10.066Z,6.97
2019-04-12T04:22:41.658Z,6.53
2019-04-12T04:25:24.355Z,12.40
2019-04-12T04:28:04.494Z,9.77
2019-04-12T04:30:40.681Z,8.73
2019-04-12T04:33:13.235Z,16.73
2019-04-12T04:35:43.966Z,8.00
2019-04-12T04:38:21.581Z,7.87
2019-04-12T04:40:58.490Z,8.67
2019-04-12T04:43:29.212Z,8.10
2019-04-12T04:46:00.124Z,9.80
2019-04-12T04:48:30.900Z,7.10
2019-04-12T04:51:01.716Z,11.10
2019-04-12T04:53:32.844Z,9.47
2019-04-12T04:56:03.709Z,7.33
2019-04-12T04:58:34.340Z,7.60
2019-04-12T05:01:05.394Z,8.37
2019-04-12T05:03:36.213Z,8.97
2019-04-12T05:06:07.240Z,8.90
2019-04-12T05:08:37.930Z,7.17
2019-04-12T05:11:09.075Z,7.93
2019-04-12T05:13:39.960Z,7.93
2019-04-12T05:16:10.588Z,8.77
2019-04-12T05:18:41.573Z,7.80
2019-04-12T05:21:12.542Z,7.70
2019-04-12T05:23:43.781Z,11.67
2019-04-12T05:26:14.896Z,10.80
2019-04-12T05:28:45.800Z,8.03
2019-04-12T05:31:16.653Z,9.77
2019-04-12T05:33:49.764Z,11.93
2019-04-12T05:36:19.880Z,9.80
2019-04-12T05:38:50.579Z,6.77
2019-04-12T05:41:21.239Z,7.00
2019-04-12T05:43:54.808Z,11.97
2019-04-12T05:46:43.441Z,9.03
2019-04-12T05:49:36.520Z,10.23
2019-04-12T05:52:07.733Z,9.37
2019-04-12T05:54:38.470Z,8.83
2019-04-12T05:57:09.433Z,8.17
2019-04-12T05:59:41.413Z,9.10
2019-04-12T06:02:31.975Z,7.30
2019-04-12T06:05:02.629Z,9.50
2019-04-12T06:07:33.220Z,9.33
2019-04-12T06:10:04.400Z,13.47
2019-04-12T06:12:35.655Z,9.30
2019-04-12T06:15:07.814Z,8.40
2019-04-12T06:17:40.401Z,9.73
2019-04-12T06:20:29.220Z,5.67
2019-04-12T06:23:00.081Z,10.10
2019-04-12T06:25:34.409Z,13.13
2019-04-12T06:28:05.302Z,7.13
2019-04-12T06:30:39.561Z,10.50
2019-04-12T06:33:10.309Z,8.47
2019-04-12T06:35:42.068Z,10.83
2019-04-12T06:38:12.725Z,7.13
2019-04-12T06:40:46.789Z,8.23
2019-04-12T06:43:17.548Z,8.80
2019-04-12T06:45:48.320Z,7.93
2019-04-12T06:48:18.982Z,11.50
2019-04-12T06:50:53.006Z,9.17
2019-04-12T06:53:23.678Z,9.13
2019-04-12T06:56:31.779Z,9.93
2019-04-12T06:59:02.550Z,7.70
2019-04-12T07:01:41.412Z,6.60
2019-04-12T07:04:43.337Z,6.70
2019-04-12T07:07:13.917Z,9.93
2019-04-12T07:09:44.649Z,5.83
2019-04-12T07:12:15.441Z,8.47
2019-04-12T07:14:46.317Z,7.07
2019-04-12T07:17:17.180Z,7.20
2019-04-12T07:19:47.833Z,4.50
2019-04-12T07:22:18.489Z,8.33
2019-04-12T07:24:49.068Z,8.30
2019-04-12T07:27:20.857Z,7.03
2019-04-12T07:29:51.422Z,8.93
2019-04-12T07:32:22.356Z,7.60
2019-04-12T07:34:53.018Z,9.77
2019-04-12T07:37:23.716Z,9.90
2019-04-12T07:39:54.594Z,7.83
2019-04-12T07:42:25.178Z,5.70
2019-04-12T07:44:55.838Z,7.07
2019-04-12T07:47:27.103Z,10.70
2019-04-12T07:49:59.300Z,9.30
2019-04-12T07:52:29.968Z,8.07
2019-04-12T07:55:24.255Z,7.97
2019-04-12T07:58:12.129Z,8.60
2019-04-12T08:01:00.375Z,6.20
2019-04-12T08:03:38.132Z,8.07
2019-04-12T08:06:15.628Z,9.03
2019-04-12T08:08:46.276Z,7.40
2019-04-12T08:11:16.949Z,7.37
2019-04-12T08:13:47.513Z,8.30
2019-04-12T08:16:18.136Z,10.17
2019-04-12T08:18:48.862Z,6.93
2019-04-12T08:21:19.405Z,7.60
2019-04-12T08:23:50.109Z,8.40
2019-04-12T08:26:20.669Z,6.87
2019-04-12T08:28:51.444Z,8.57
2019-04-12T08:31:22.023Z,8.20
2019-04-12T08:33:52.730Z,6.37
2019-04-12T08:36:23.433Z,6.97
2019-04-12T08:38:54.048Z,9.90
2019-04-12T08:41:24.664Z,8.80
2019-04-12T08:43:55.248Z,8.03
2019-04-12T08:46:26.098Z,9.10
2019-04-12T08:48:57.179Z,7.00
2019-04-12T08:51:27.769Z,6.40
2019-04-12T08:53:58.589Z,6.00
2019-04-12T08:56:29.267Z,5.97
2019-04-12T08:58:59.969Z,6.90
2019-04-12T09:01:30.582Z,5.33
2019-04-12T09:04:01.235Z,6.97
2019-04-12T09:06:31.856Z,5.87
2019-04-12T09:09:13.426Z,5.87
2019-04-12T09:11:44.546Z,7.00
2019-04-12T09:14:15.368Z,5.60
2019-04-12T09:16:46.492Z,4.23
2019-04-12T09:19:27.205Z,5.47
2019-04-12T09:22:15.669Z,5.83
2019-04-12T09:24:59.045Z,3.60
2019-04-12T09:27:29.829Z,2.87
2019-04-12T09:30:00.794Z,4.90
2019-04-12T09:32:31.550Z,4.87
2019-04-12T09:35:03.584Z,5.53
2019-04-12T09:37:34.364Z,4.83
2019-04-12T09:40:05.632Z,3.97
2019-04-12T09:42:36.269Z,4.30
2019-04-12T09:45:07.144Z,5.50
2019-04-12T09:47:37.820Z,6.40
2019-04-12T09:50:08.730Z,6.30
2019-04-12T09:52:39.395Z,7.50
2019-04-12T09:55:10.348Z,4.73
2019-04-12T09:57:41.172Z,4.77
2019-04-12T10:00:12.385Z,4.83
2019-04-12T10:02:48.182Z,6.20
2019-04-12T10:05:19.036Z,10.13
2019-04-12T10:07:50.077Z,5.33
2019-04-12T10:10:21.103Z,10.40
2019-04-12T10:12:51.751Z,4.27
2019-04-12T10:15:22.715Z,4.07
2019-04-12T10:17:53.614Z,4.60
2019-04-12T10:20:24.450Z,5.37
2019-04-12T10:22:58.325Z,5.70
2019-04-12T10:25:33.739Z,9.27
2019-04-12T10:28:07.527Z,8.60
2019-04-12T10:30:47.001Z,6.20
2019-04-12T10:33:17.979Z,6.00
2019-04-12T10:35:48.980Z,6.30
2019-04-12T10:38:21.957Z,9.70
2019-04-12T10:40:52.718Z,5.23
2019-04-12T10:43:23.442Z,5.93
2019-04-12T10:46:09.609Z,5.13
2019-04-12T10:48:51.499Z,5.40
2019-04-12T10:51:36.267Z,6.47
2019-04-12T10:54:26.002Z,6.47
2019-04-12T10:56:56.665Z,4.87
2019-04-12T10:59:29.282Z,6.70
2019-04-12T11:02:00.080Z,6.57
2019-04-12T11:04:30.945Z,4.83
2019-04-12T11:07:03.398Z,5.03
2019-04-12T11:09:36.206Z,6.33
2019-04-12T11:12:09.263Z,6.63
2019-04-12T11:14:39.780Z,6.40
2019-04-12T11:17:10.632Z,4.10
2019-04-12T11:19:41.612Z,4.43
2019-04-12T11:22:13.899Z,4.43
2019-04-12T11:24:44.917Z,5.90
2019-04-12T11:27:15.764Z,4.87
2019-04-12T11:29:46.461Z,4.53
2019-04-12T11:32:17.106Z,5.13
2019-04-12T11:34:49.851Z,3.73
2019-04-12T11:37:20.496Z,4.60
2019-04-12T11:39:51.286Z,6.20
2019-04-12T11:42:22.417Z,8.10
2019-04-12T11:44:53.144Z,9.30
2019-04-12T11:47:26.654Z,10.50
2019-04-12T11:49:57.275Z,8.83
2019-04-12T11:52:28.064Z,5.53
2019-04-12T11:54:59.006Z,5.53
2019-04-12T11:57:29.605Z,8.20
2019-04-12T12:00:00.334Z,7.37
2019-04-12T12:02:52.072Z,5.33
2019-04-12T12:05:40.478Z,4.53
2019-04-12T12:08:30.290Z,5.50
2019-04-12T12:11:06.004Z,5.20
2019-04-12T12:13:47.650Z,11.87
2019-04-12T12:16:29.757Z,4.30
2019-04-12T12:19:02.775Z,5.00
2019-04-12T12:21:35.207Z,5.50
2019-04-12T12:24:06.217Z,5.13
2019-04-12T12:26:37.064Z,8.13
2019-04-12T12:29:10.639Z,3.80
2019-04-12T12:31:46.107Z,7.47
2019-04-12T12:34:18.705Z,8.00
2019-04-12T12:36:49.442Z,6.67
2019-04-12T12:39:23.018Z,8.00
2019-04-12T12:41:53.730Z,3.50
2019-04-12T12:44:24.351Z,5.07
2019-04-12T12:46:54.917Z,5.87
2019-04-12T12:49:28.302Z,6.40
2019-04-12T12:52:02.092Z,5.20
2019-04-12T12:54:33.081Z,3.40
2019-04-12T12:57:03.786Z,5.63
2019-04-12T12:59:34.636Z,4.00
2019-04-12T13:02:07.506Z,5.80
2019-04-12T13:04:38.141Z,13.33
2019-04-12T13:07:09.021Z,3.37
2019-04-12T13:09:39.786Z,6.03
2019-04-12T13:12:10.774Z,6.30
2019-04-12T13:14:41.506Z,4.90
2019-04-12T13:17:12.307Z,5.03
2019-04-12T13:19:43.036Z,4.67
2019-04-12T13:22:16.059Z,5.70
2019-04-12T13:24:46.675Z,5.80
2019-04-12T13:27:17.711Z,3.57
2019-04-12T13:29:48.808Z,7.10
2019-04-12T13:32:47.494Z,5.00
2019-04-12T13:35:52.643Z,6.10
2019-04-12T13:38:31.922Z,4.93
2019-04-12T13:41:02.969Z,4.60
2019-04-12T13:43:33.860Z,5.93
2019-04-12T13:46:04.564Z,4.53
2019-04-12T13:48:35.638Z,4.27
2019-04-12T13:51:06.513Z,3.93
2019-04-12T13:53:47.382Z,3.77
2019-04-12T13:56:09.535Z,4.07
2019-04-12T13:58:40.414Z,6.13
2019-04-12T14:01:11.185Z,5.60
2019-04-12T14:03:44.840Z,6.40
2019-04-12T14:06:14.499Z,6.20
2019-04-12T14:08:45.201Z,5.90
2019-04-12T14:11:15.913Z,6.50
2019-04-12T14:13:47.277Z,9.50
2019-04-12T14:16:18.060Z,11.87
2019-04-12T14:18:48.802Z,10.17
2019-04-12T14:21:19.896Z,13.97
2019-04-12T14:23:50.837Z,13.37
2019-04-12T14:26:21.860Z,7.97
2019-04-12T14:28:52.638Z,7.77
2019-04-12T14:31:29.644Z,7.67
2019-04-12T14:34:06.154Z,4.70
2019-04-12T14:36:47.313Z,11.07
2019-04-12T14:39:19.833Z,8.83
2019-04-12T14:41:50.883Z,6.07
2019-04-12T14:44:39.657Z,8.70
2019-04-12T14:47:16.361Z,8.97
2019-04-12T14:49:47.168Z,8.50
2019-04-12T14:52:18.019Z,9.03
2019-04-12T14:54:48.710Z,6.60
2019-04-12T14:57:19.453Z,7.00
2019-04-12T14:59:50.256Z,6.57
2019-04-12T15:02:27.129Z,4.57
2019-04-12T15:05:00.097Z,9.03
2019-04-12T15:07:34.237Z,6.80
2019-04-12T15:10:05.652Z,3.93
2019-04-12T15:12:36.446Z,5.03
2019-04-12T15:15:08.205Z,5.43
2019-04-12T15:17:39.373Z,5.07
2019-04-12T15:20:10.414Z,7.17
2019-04-12T15:22:41.377Z,5.90
2019-04-12T15:25:12.206Z,8.33
2019-04-12T15:27:42.902Z,8.73
2019-04-12T15:30:13.835Z,7.50
2019-04-12T15:32:44.847Z,6.83
2019-04-12T15:35:15.698Z,10.60
2019-04-12T15:37:46.572Z,5.67
2019-04-12T15:40:17.605Z,14.43
2019-04-12T15:42:48.254Z,10.63
2019-04-12T15:45:18.869Z,7.63
2019-04-12T15:47:49.445Z,5.73
2019-04-12T15:50:20.135Z,11.90
2019-04-12T15:52:50.703Z,8.97
2019-04-12T15:55:23.048Z,9.97
2019-04-12T15:57:53.704Z,4.47
2019-04-12T16:00:51.321Z,10.60
2019-04-12T16:03:25.109Z,8.40
2019-04-12T16:05:56.204Z,9.20
2019-04-12T16:08:29.938Z,10.60
2019-04-12T16:11:06.615Z,9.70
2019-04-12T16:14:15.251Z,15.20
2019-04-12T16:17:19.405Z,16.27
2019-04-12T16:19:53.352Z,10.83
2019-04-12T16:22:24.098Z,16.10
2019-04-12T16:24:54.899Z,12.47
2019-04-12T16:27:28.377Z,15.37
2019-04-12T16:30:27.200Z,12.43
2019-04-12T16:33:15.525Z,17.70
2019-04-12T16:35:51.189Z,11.77
2019-04-12T16:38:29.604Z,7.67
2019-04-12T16:41:01.187Z,14.30
2019-04-12T16:43:35.225Z,10.33
2019-04-12T16:46:11.283Z,10.17
2019-04-12T16:48:42.048Z,9.63
2019-04-12T16:51:15.822Z,9.57
2019-04-12T16:53:48.349Z,9.27
2019-04-12T16:56:19.427Z,11.10
2019-04-12T16:58:52.067Z,11.17
2019-04-12T17:01:36.034Z,9.67
2019-04-12T17:04:02.025Z,8.10
2019-04-12T17:06:34.148Z,10.13
2019-04-12T17:09:07.402Z,8.50
2019-04-12T17:11:39.452Z,8.90
2019-04-12T17:14:13.887Z,11.30
2019-04-12T17:16:47.594Z,9.20
2019-04-12T17:19:21.462Z,9.50
2019-04-12T17:21:55.311Z,7.90
2019-04-12T17:24:29.342Z,11.60
2019-04-12T17:27:00.340Z,9.10
2019-04-12T17:29:33.004Z,10.30
2019-04-12T17:32:13.830Z,10.60
2019-04-12T17:34:44.685Z,11.43
2019-04-12T17:37:15.655Z,12.63
2019-04-12T17:39:46.374Z,10.10
2019-04-12T17:42:18.873Z,12.00
2019-04-12T17:44:52.164Z,16.00
2019-04-12T17:47:39.123Z,13.17
2019-04-12T17:50:43.994Z,18.80
2019-04-12T17:53:34.840Z,20.70
2019-04-12T17:56:10.651Z,15.17
2019-04-12T17:58:43.472Z,12.33
2019-04-12T18:02:01.650Z,11.70
2019-04-12T18:04:30.107Z,24.57
2019-04-12T18:07:03.986Z,18.23
2019-04-12T18:09:35.140Z,17.80
2019-04-12T18:12:07.215Z,17.10
2019-04-12T18:14:38.453Z,20.03
2019-04-12T18:17:18.977Z,23.87
2019-04-12T18:19:55.307Z,20.73
2019-04-12T18:22:33.603Z,17.77
2019-04-12T18:25:07.843Z,17.97
2019-04-12T18:27:40.635Z,22.70
2019-04-12T18:30:12.369Z,21.80
2019-04-12T18:32:46.493Z,16.63
2019-04-12T18:35:17.735Z,14.47
2019-04-12T18:37:51.922Z,13.87
2019-04-12T18:40:25.368Z,10.47
2019-04-12T18:42:56.364Z,12.57
2019-04-12T18:45:32.537Z,8.70
2019-04-12T18:48:06.830Z,17.80
2019-04-12T18:50:38.162Z,16.90
2019-04-12T18:53:09.380Z,12.33
2019-04-12T18:55:40.906Z,20.60
2019-04-12T18:58:12.332Z,12.70
2019-04-12T19:00:44.779Z,9.80
2019-04-12T19:03:16.022Z,13.10
2019-04-12T19:05:47.358Z,9.27
2019-04-12T19:08:20.357Z,10.67
2019-04-12T19:10:53.595Z,9.20
2019-04-12T19:13:26.466Z,13.30
2019-04-12T19:15:57.776Z,17.03
2019-04-12T19:18:30.052Z,11.60
2019-04-12T19:21:01.433Z,15.93
2019-04-12T19:23:32.563Z,15.30
2019-04-12T19:26:03.699Z,26.93
2019-04-12T19:28:37.179Z,15.17
2019-04-12T19:31:10.193Z,14.97
2019-04-12T19:34:12.705Z,17.60
2019-04-12T19:36:53.809Z,11.90
2019-04-12T19:39:37.750Z,17.17
2019-04-12T19:42:11.022Z,15.23
2019-04-12T19:44:42.101Z,13.90
2019-04-12T19:47:17.032Z,12.07
2019-04-12T19:49:51.862Z,13.40
2019-04-12T19:52:25.449Z,12.77
2019-04-12T19:54:56.534Z,11.87
2019-04-12T19:57:27.703Z,13.40
2019-04-12T19:59:59.633Z,13.70
2019-04-12T20:02:32.968Z,16.43
2019-04-12T20:05:04.451Z,10.90
2019-04-12T20:07:35.492Z,8.90
2019-04-12T20:10:08.972Z,8.57
2019-04-12T20:12:41.947Z,10.57
2019-04-12T20:15:15.930Z,7.40
2019-04-12T20:17:49.875Z,9.40
2019-04-12T20:20:23.583Z,11.80
2019-04-12T20:22:58.402Z,8.13
2019-04-12T20:25:29.755Z,9.80
2019-04-12T20:28:06.144Z,10.17
2019-04-12T20:30:37.328Z,8.83
2019-04-12T20:33:12.418Z,8.93
2019-04-12T20:35:43.902Z,9.70
2019-04-12T20:38:15.368Z,9.10
2019-04-12T20:40:46.665Z,11.87
2019-04-12T20:43:19.264Z,9.57
2019-04-12T20:45:55.332Z,9.83
2019-04-12T20:48:28.762Z,9.70
2019-04-12T20:51:08.531Z,9.40
2019-04-12T20:53:41.169Z,8.93
2019-04-12T20:56:22.662Z,11.07
2019-04-12T20:58:57.003Z,8.60
2019-04-12T21:01:29.300Z,10.07
2019-04-12T21:04:01.817Z,12.40
2019-04-12T21:06:37.627Z,8.60
2019-04-12T21:09:09.328Z,11.20
2019-04-12T21:11:40.550Z,12.17
2019-04-12T21:14:11.709Z,11.60
2019-04-12T21:16:43.316Z,13.60
2019-04-12T21:19:14.575Z,9.87
2019-04-12T21:21:51.280Z,15.80
2019-04-12T21:24:29.953Z,18.50
2019-04-12T21:27:01.044Z,15.27
2019-04-12T21:29:32.037Z,12.83
2019-04-12T21:32:03.097Z,11.87
2019-04-12T21:34:34.168Z,8.47
2019-04-12T21:37:05.529Z,9.03
2019-04-12T21:39:37.626Z,11.80
2019-04-12T21:42:14.775Z,9.53
2019-04-12T21:44:45.994Z,11.53
2019-04-12T21:47:17.228Z,10.30
2019-04-12T21:49:51.329Z,12.57
2019-04-12T21:52:25.592Z,12.90
2019-04-12T21:54:57.031Z,11.97
2019-04-12T21:57:29.615Z,11.23
2019-04-12T22:00:00.711Z,11.00
2019-04-12T22:02:31.683Z,9.43
2019-04-12T22:05:03.181Z,11.70
2019-04-12T22:07:36.973Z,9.40
2019-04-12T22:10:08.164Z,10.60
2019-04-12T22:12:39.362Z,10.13
2019-04-12T22:15:10.857Z,14.30
2019-04-12T22:17:47.982Z,15.37
2019-04-12T22:20:19.293Z,19.30
2019-04-12T22:22:53.147Z,21.57
2019-04-12T22:25:24.402Z,11.20
2019-04-12T22:27:55.454Z,16.03
2019-04-12T22:30:26.335Z,11.63
2019-04-12T22:32:57.383Z,15.40
2019-04-12T22:35:28.255Z,14.17
2019-04-12T22:37:59.068Z,11.63
2019-04-12T22:40:31.316Z,13.63
2019-04-12T22:43:02.629Z,13.73
2019-04-12T22:45:34.012Z,13.63
2019-04-12T22:48:05.130Z,15.30
2019-04-12T22:50:36.150Z,13.40
2019-04-12T22:53:07.313Z,12.20
2019-04-12T22:55:38.011Z,13.40
2019-04-12T22:58:09.663Z,14.63
2019-04-12T23:00:41.144Z,13.30
2019-04-12T23:03:15.604Z,14.70
2019-04-12T23:05:56.887Z,13.73
2019-04-12T23:08:36.627Z,15.67
2019-04-12T23:11:17.629Z,14.77
2019-04-12T23:13:50.336Z,16.37
2019-04-12T23:16:22.668Z,16.27
2019-04-12T23:19:01.197Z,21.07
2019-04-12T23:21:39.985Z,15.73
2019-04-12T23:24:17.111Z,14.43
2019-04-12T23:26:54.399Z,16.57
2019-04-12T23:29:29.390Z,17.13
2019-04-12T23:32:15.486Z,14.80
2019-04-12T23:35:20.903Z,14.33
2019-04-12T23:38:00.657Z,14.53
2019-04-12T23:40:39.471Z,17.67
2019-04-12T23:43:15.234Z,16.83
2019-04-12T23:45:49.358Z,13.70
2019-04-12T23:48:30.152Z,18.17
2019-04-12T23:51:09.150Z,16.37
2019-04-12T23:53:54.612Z,16.67
2019-04-12T23:56:27.624Z,17.67
2019-04-12T23:59:06.053Z,15.60
